Tropical Cyclones
[Index]
Main Index Home Page Stock Weather Photos Extreme Storms Discussion Storm News and Storm Chasing Reports Tropical Cyclones / Hurricanes / Typhoons Weather Data and Links Wild Fires / Bushfires Weather Observation Techniques Weather Picture Catalogue Tornado Pictures and Reports Stock Video Footage and DVDs for sale
Season 1958-1959 Tropical Cyclone 195921 Track Map
Season 1958-1959 Summaries: [BoM-AU] [JTWC-AU] [JTWC-SIO] [JTWC-SPAC] [JTWC-SH]
<<- Previous TC | JTWC 1958-1959 Season | Next TC ->>

click for intensity scale information  Lat/long Grid: Show Hide

 Date Labels: Show Hide

Joint Typhoon Warning Centre Cyclone Data

Name: 195921
Number: 361 / 5921

14 Feb 1959 06:00 UTC to 27 Feb 1959 06:00 UTC

    date/time    lat    long     hPa   cat  kts
1959-02-14 06   12.9    43.2                              
1959-02-14 12   12.8    44.4                              
1959-02-14 18   12.7    45.7                              
1959-02-15 00   12.7    46.9                              
1959-02-15 06   12.7    48.2                              
1959-02-15 12   12.7    49.8                              
1959-02-15 18   12.7    51.5                              
1959-02-16 00   12.7    52.9                              
1959-02-16 06   12.7    53.8                              
1959-02-16 12   12.7    54.1                              
1959-02-16 18   12.7    54.4                              
1959-02-17 00   12.7    54.7                              
1959-02-17 06   12.8    55.0                              
1959-02-17 12   12.8    55.3                              
1959-02-17 18   12.9    55.5                              
1959-02-18 00   12.9    55.8                              
1959-02-18 06   12.9    56.0                              
1959-02-18 12   12.9    55.8                              
1959-02-18 18   13.0    55.5                              
1959-02-19 00   13.0    55.2                              
1959-02-19 06   13.1    55.0                              
1959-02-19 12   13.1    54.8                              
1959-02-19 18   13.2    54.6                              
1959-02-20 00   13.2    54.4                              
1959-02-20 06   13.2    54.2                              
1959-02-20 12   13.2    53.4                              
1959-02-20 18   13.3    52.4                              
1959-02-21 00   13.2    51.7                              
1959-02-21 06   13.2    51.0                              
1959-02-21 12   13.5    50.4                              
1959-02-21 18   14.0    50.1                              
1959-02-22 00   14.6    50.0                              
1959-02-22 06   15.2    50.0                              
1959-02-22 12   16.0    50.0                              
1959-02-22 18   16.8    50.0                              
1959-02-23 00   17.5    50.0                              
1959-02-23 06   18.2    50.2                              
1959-02-23 12   19.0    50.7                              
1959-02-23 18   19.8    51.5                              
1959-02-24 00   20.4    52.3                              
1959-02-24 06   20.9    53.1                              
1959-02-24 12   21.2    53.9                              
1959-02-24 18   21.5    54.8                              
1959-02-25 00   21.9    55.6                              
1959-02-25 06   22.3    56.4                              
1959-02-25 12   22.9    57.5                              
1959-02-25 18   23.6    58.7                              
1959-02-26 00   24.5    59.8                              
1959-02-26 06   25.7    61.1                              
1959-02-26 12   27.3    62.8                              
1959-02-26 18   29.0    64.6                              
1959-02-27 00   30.8    66.3                              
1959-02-27 06   32.6    68.0                              
Winds are 1-min average.

Tropical cyclone tracks developed by Michael Bath using data from the Joint Typhoon Warning Centre Best Tracks and Google Maps.


[Australian Severe Weather index] [Copyright Notice] [Email Contacts] [Search This Site] [Privacy Policy]
Document: tropical_cyclone_195921.htm Updated: 18 September 2016